createdAt,value
2017-07-29T00:00:25.312Z,25.47
2017-07-29T00:01:24.716Z,25.47
2017-07-29T00:02:25.365Z,25.45
2017-07-29T00:03:25.074Z,25.47
2017-07-29T00:04:25.412Z,25.45
2017-07-29T00:05:25.140Z,25.42
2017-07-29T00:06:25.159Z,25.4
2017-07-29T00:07:25.191Z,25.4
2017-07-29T00:08:25.529Z,25.39
2017-07-29T00:09:25.496Z,25.45
2017-07-29T00:10:25.284Z,25.4
2017-07-29T00:11:24.992Z,25.38
2017-07-29T00:12:25.022Z,25.45
2017-07-29T00:13:25.673Z,25.46
2017-07-29T00:14:26.003Z,25.42
2017-07-29T00:15:25.736Z,25.35
2017-07-29T00:16:25.759Z,25.36
2017-07-29T00:17:25.473Z,25.35
2017-07-29T00:18:25.196Z,25.35
2017-07-29T00:19:25.781Z,25.38
2017-07-29T00:20:25.871Z,25.35
2017-07-29T00:21:25.588Z,25.35
2017-07-29T00:22:25.925Z,25.35
2017-07-29T00:23:25.970Z,25.38
2017-07-29T00:24:26.242Z,25.36
2017-07-29T00:25:26.016Z,25.32
2017-07-29T00:26:25.724Z,25.32
2017-07-29T00:27:26.065Z,25.33
2017-07-29T00:28:26.093Z,25.36
2017-07-29T00:29:25.509Z,25.39
2017-07-29T00:30:25.539Z,25.42
2017-07-29T00:31:25.560Z,25.38
2017-07-29T00:32:25.897Z,25.35
2017-07-29T00:33:25.930Z,25.33
2017-07-29T00:34:26.267Z,25.33
2017-07-29T00:35:25.978Z,25.4
2017-07-29T00:36:26.008Z,25.35
2017-07-29T00:37:26.041Z,25.39
2017-07-29T00:38:25.763Z,25.33
2017-07-29T00:39:26.406Z,25.36
2017-07-29T00:40:26.123Z,25.43
2017-07-29T00:41:26.464Z,25.36
2017-07-29T00:42:25.868Z,25.28
2017-07-29T00:43:25.898Z,25.36
2017-07-29T00:44:25.938Z,25.3
2017-07-29T00:45:26.267Z,25.36
2017-07-29T00:46:26.305Z,25.36
2017-07-29T00:47:26.329Z,25.42
2017-07-29T00:48:26.350Z,25.39
2017-07-29T00:49:26.690Z,25.3
2017-07-29T00:50:26.403Z,25.33
2017-07-29T00:51:26.432Z,25.35
2017-07-29T00:52:26.456Z,25.35
2017-07-29T00:53:26.179Z,25.36
2017-07-29T00:54:26.830Z,25.33
2017-07-29T00:55:26.847Z,25.33
2017-07-29T00:56:26.580Z,25.38
2017-07-29T00:57:26.609Z,25.43
2017-07-29T00:58:26.629Z,25.25
2017-07-29T00:59:26.966Z,25.33
2017-07-29T01:00:26.943Z,25.3
2017-07-29T01:01:27.026Z,25.32
2017-07-29T01:02:26.741Z,25.3
2017-07-29T01:03:26.457Z,25.28
2017-07-29T01:04:26.801Z,25.21
2017-07-29T01:05:26.815Z,25.35
2017-07-29T01:06:26.852Z,25.21
2017-07-29T01:07:26.572Z,25.25
2017-07-29T01:08:27.224Z,25.27
2017-07-29T01:09:27.257Z,25.24
2017-07-29T01:10:27.228Z,25.2
2017-07-29T01:11:26.991Z,25.2
2017-07-29T01:12:27.344Z,25.08
2017-07-29T01:13:27.823Z,25.1
2017-07-29T01:14:27.086Z,25.13
2017-07-29T01:15:27.423Z,25.13
2017-07-29T01:16:27.136Z,25.21
2017-07-29T01:17:27.165Z,25.21
2017-07-29T01:18:26.877Z,25.2
2017-07-29T01:19:27.224Z,25.18
2017-07-29T01:20:27.854Z,25.15
2017-07-29T01:21:27.581Z,25.14
2017-07-29T01:22:27.620Z,25.14
2017-07-29T01:23:27.649Z,25.18
2017-07-29T01:24:27.678Z,25.15
2017-07-29T01:25:27.646Z,25.14
2017-07-29T01:26:27.720Z,25.13
2017-07-29T01:27:27.457Z,25.09
2017-07-29T01:28:27.481Z,25.21
2017-07-29T01:29:27.501Z,25.15
2017-07-29T01:30:27.466Z,25.15
2017-07-29T01:31:27.245Z,25.18
2017-07-29T01:32:27.587Z,25.14
2017-07-29T01:33:27.617Z,25.17
2017-07-29T01:34:27.941Z,25.13
2017-07-29T01:35:27.919Z,25.14
2017-07-29T01:36:27.691Z,25.13
2017-07-29T01:37:28.038Z,25.15
2017-07-29T01:38:27.446Z,25.17
2017-07-29T01:39:28.093Z,25.17
2017-07-29T01:40:28.098Z,25.13
2017-07-29T01:41:27.827Z,25.1
2017-07-29T01:42:27.555Z,25.13
2017-07-29T01:43:27.587Z,25.15
2017-07-29T01:44:27.922Z,25.15
2017-07-29T01:45:28.555Z,25.17
2017-07-29T01:46:27.972Z,25.18
2017-07-29T01:47:27.688Z,25.15
2017-07-29T01:48:28.034Z,25.15
2017-07-29T01:49:27.745Z,25.18
2017-07-29T01:50:28.087Z,25.08
2017-07-29T01:51:28.113Z,25.15
2017-07-29T01:52:27.849Z,25.14
2017-07-29T01:53:28.485Z,25.17
2017-07-29T01:54:28.510Z,25.06
2017-07-29T01:55:28.231Z,25.15
2017-07-29T01:56:27.952Z,25.15
2017-07-29T01:57:28.598Z,25.08
2017-07-29T01:58:27.997Z,25.14
2017-07-29T01:59:28.343Z,25.17
2017-07-29T02:00:28.055Z,25.05
2017-07-29T02:01:28.398Z,25.09
2017-07-29T02:02:28.117Z,25.13
2017-07-29T02:03:28.141Z,25.05
2017-07-29T02:04:28.477Z,25.09
2017-07-29T02:05:28.198Z,25.05
2017-07-29T02:06:28.527Z,25.08
2017-07-29T02:07:28.252Z,25.03
2017-07-29T02:08:28.590Z,25.02
2017-07-29T02:09:28.624Z,24.99
2017-07-29T02:10:28.641Z,25.06
2017-07-29T02:11:28.676Z,25
2017-07-29T02:12:29.021Z,25.02
2017-07-29T02:13:28.422Z,25.03
2017-07-29T02:14:28.445Z,25.09
2017-07-29T02:15:29.094Z,25
2017-07-29T02:16:28.818Z,25.05
2017-07-29T02:17:28.852Z,25.02
2017-07-29T02:18:29.196Z,25.09
2017-07-29T02:19:29.214Z,25.05
2017-07-29T02:20:29.235Z,25
2017-07-29T02:21:28.955Z,25.02
2017-07-29T02:22:28.988Z,25
2017-07-29T02:23:29.329Z,25.03
2017-07-29T02:24:28.726Z,25.03
2017-07-29T02:25:29.058Z,25.03
2017-07-29T02:26:29.095Z,25
2017-07-29T02:27:29.128Z,24.96
2017-07-29T02:28:28.841Z,25.02
2017-07-29T02:29:29.178Z,25.05
2017-07-29T02:30:29.519Z,25
2017-07-29T02:31:29.550Z,24.99
2017-07-29T02:32:29.278Z,24.91
2017-07-29T02:33:29.609Z,24.99
2017-07-29T02:34:29.326Z,24.99
2017-07-29T02:35:29.657Z,24.98
2017-07-29T02:36:29.375Z,25
2017-07-29T02:37:29.731Z,25
2017-07-29T02:38:29.770Z,24.99
2017-07-29T02:39:29.782Z,24.99
2017-07-29T02:40:29.485Z,25
2017-07-29T02:41:29.205Z,24.99
2017-07-29T02:42:29.548Z,24.99
2017-07-29T02:43:29.895Z,24.93
2017-07-29T02:44:29.290Z,25.05
2017-07-29T02:45:29.953Z,24.9
2017-07-29T02:46:29.340Z,25.03
2017-07-29T02:47:29.996Z,24.99
2017-07-29T02:48:30.029Z,24.99
2017-07-29T02:49:30.061Z,24.99
2017-07-29T02:50:30.090Z,24.98
2017-07-29T02:51:29.806Z,24.99
2017-07-29T02:52:29.829Z,24.95
2017-07-29T02:53:29.849Z,25.02
2017-07-29T02:54:29.909Z,24.91
2017-07-29T02:55:29.911Z,24.98
2017-07-29T02:56:29.626Z,24.96
2017-07-29T02:57:29.964Z,25
2017-07-29T02:58:29.993Z,24.95
2017-07-29T02:59:30.014Z,24.95
2017-07-29T03:00:30.043Z,24.96
2017-07-29T03:01:30.071Z,24.88
2017-07-29T03:02:29.790Z,24.87
2017-07-29T03:03:30.441Z,24.91
2017-07-29T03:04:30.162Z,24.99
2017-07-29T03:05:30.499Z,24.9
2017-07-29T03:06:30.216Z,24.9
2017-07-29T03:07:30.242Z,24.88
2017-07-29T03:08:29.959Z,24.98
2017-07-29T03:09:29.988Z,24.93
2017-07-29T03:10:30.347Z,24.91
2017-07-29T03:11:30.608Z,24.93
2017-07-29T03:12:30.697Z,24.9
2017-07-29T03:13:30.404Z,24.9
2017-07-29T03:14:30.447Z,24.87
2017-07-29T03:15:30.467Z,24.88
2017-07-29T03:16:30.480Z,24.9
2017-07-29T03:17:30.208Z,24.83
2017-07-29T03:18:30.556Z,24.9
2017-07-29T03:19:30.574Z,24.88
2017-07-29T03:20:30.602Z,24.9
2017-07-29T03:21:30.883Z,24.83
2017-07-29T03:22:30.660Z,24.83
2017-07-29T03:23:30.693Z,24.83
2017-07-29T03:24:30.720Z,24.81
2017-07-29T03:25:30.743Z,24.83
2017-07-29T03:26:30.718Z,24.85
2017-07-29T03:27:30.809Z,24.84
2017-07-29T03:28:30.518Z,24.78
2017-07-29T03:29:31.175Z,24.78
2017-07-29T03:30:30.887Z,24.8
2017-07-29T03:31:30.900Z,24.83
2017-07-29T03:32:30.628Z,24.9
2017-07-29T03:33:30.972Z,24.77
2017-07-29T03:34:31.302Z,24.83
2017-07-29T03:35:31.027Z,24.81
2017-07-29T03:36:30.992Z,24.8
2017-07-29T03:37:30.769Z,24.83
2017-07-29T03:38:31.118Z,24.84
2017-07-29T03:39:31.442Z,24.83
2017-07-29T03:40:31.474Z,24.76
2017-07-29T03:41:31.456Z,24.77
2017-07-29T03:42:30.904Z,24.83
2017-07-29T03:43:30.933Z,24.83
2017-07-29T03:44:31.587Z,24.67
2017-07-29T03:45:31.618Z,24.8
2017-07-29T03:46:31.940Z,24.78
2017-07-29T03:47:31.672Z,24.81
2017-07-29T03:48:31.394Z,24.76
2017-07-29T03:49:31.725Z,24.83
2017-07-29T03:50:31.131Z,24.76
2017-07-29T03:51:31.772Z,24.78
2017-07-29T03:52:31.813Z,24.8
2017-07-29T03:53:31.824Z,24.77
2017-07-29T03:54:31.238Z,24.8
2017-07-29T03:55:31.915Z,24.8
2017-07-29T03:56:32.228Z,24.78
2017-07-29T03:57:31.952Z,24.8
2017-07-29T03:58:31.661Z,24.83
2017-07-29T03:59:31.690Z,24.8
2017-07-29T04:00:31.718Z,24.78
2017-07-29T04:01:31.686Z,24.87
2017-07-29T04:02:31.497Z,24.83
2017-07-29T04:03:32.118Z,24.9
2017-07-29T04:04:31.843Z,24.83
2017-07-29T04:05:31.546Z,24.77
2017-07-29T04:06:32.452Z,24.88
2017-07-29T04:07:31.916Z,24.9
2017-07-29T04:08:31.953Z,24.83
2017-07-29T04:09:31.969Z,24.81
2017-07-29T04:10:32.314Z,24.78
2017-07-29T04:11:32.592Z,24.77
2017-07-29T04:12:32.370Z,24.8
2017-07-29T04:13:32.403Z,24.8
2017-07-29T04:14:32.434Z,24.85
2017-07-29T04:15:32.455Z,24.81
2017-07-29T04:16:32.107Z,24.87
2017-07-29T04:17:32.508Z,24.84
2017-07-29T04:18:32.217Z,24.83
2017-07-29T04:19:31.942Z,24.84
2017-07-29T04:20:32.279Z,24.85
2017-07-29T04:21:32.615Z,24.88
2017-07-29T04:22:32.645Z,24.71
2017-07-29T04:23:32.360Z,24.8
2017-07-29T04:24:32.385Z,24.8
2017-07-29T04:25:32.734Z,24.85
2017-07-29T04:26:32.699Z,24.8
2017-07-29T04:27:32.473Z,24.85
2017-07-29T04:28:32.506Z,24.78
2017-07-29T04:29:32.526Z,24.77
2017-07-29T04:30:32.249Z,24.77
2017-07-29T04:31:32.879Z,24.9
2017-07-29T04:32:32.612Z,24.81
2017-07-29T04:33:32.639Z,24.8
2017-07-29T04:34:32.658Z,24.87
2017-07-29T04:35:32.384Z,24.76
2017-07-29T04:36:32.975Z,24.76
2017-07-29T04:37:33.065Z,24.8
2017-07-29T04:38:33.089Z,24.78
2017-07-29T04:39:32.802Z,24.67
2017-07-29T04:40:32.835Z,24.77
2017-07-29T04:41:33.172Z,24.8
2017-07-29T04:42:32.892Z,24.69
2017-07-29T04:43:33.230Z,24.69
2017-07-29T04:44:32.941Z,24.73
2017-07-29T04:45:32.978Z,24.71
2017-07-29T04:46:33.007Z,24.65
2017-07-29T04:47:33.336Z,24.71
2017-07-29T04:48:33.057Z,24.76
2017-07-29T04:49:33.086Z,24.65
2017-07-29T04:50:33.428Z,24.73
2017-07-29T04:51:33.143Z,24.69
2017-07-29T04:52:33.172Z,24.65
2017-07-29T04:53:32.883Z,24.76
2017-07-29T04:54:32.914Z,24.69
2017-07-29T04:55:32.938Z,24.64
2017-07-29T04:56:33.279Z,24.69
2017-07-29T04:57:33.324Z,24.61
2017-07-29T04:58:33.333Z,24.73
2017-07-29T04:59:33.362Z,24.67
2017-07-29T05:00:33.398Z,24.6
2017-07-29T05:01:33.111Z,24.69
2017-07-29T05:02:33.445Z,24.62
2017-07-29T05:03:33.156Z,24.68
2017-07-29T05:04:33.813Z,24.58
2017-07-29T05:05:33.530Z,24.68
2017-07-29T05:06:33.567Z,24.65
2017-07-29T05:07:33.272Z,24.6
2017-07-29T05:08:33.305Z,24.61
2017-07-29T05:09:33.327Z,24.71
2017-07-29T05:10:33.678Z,24.61
2017-07-29T05:11:34.015Z,24.65
2017-07-29T05:12:33.416Z,24.67
2017-07-29T05:13:33.752Z,24.77
2017-07-29T05:14:34.096Z,24.62
2017-07-29T05:15:33.503Z,24.67
2017-07-29T05:16:34.151Z,24.68
2017-07-29T05:17:34.171Z,24.61
2017-07-29T05:18:33.888Z,24.69
2017-07-29T05:19:33.624Z,24.6
2017-07-29T05:20:33.635Z,24.6
2017-07-29T05:21:33.979Z,24.62
2017-07-29T05:22:33.691Z,24.65
2017-07-29T05:23:34.351Z,24.61
2017-07-29T05:24:34.374Z,24.71
2017-07-29T05:25:33.775Z,24.68
2017-07-29T05:26:34.117Z,24.68
2017-07-29T05:27:34.140Z,24.73
2017-07-29T05:28:34.172Z,24.69
2017-07-29T05:29:34.509Z,24.69
2017-07-29T05:30:34.224Z,24.65
2017-07-29T05:31:34.255Z,24.67
2017-07-29T05:32:34.278Z,24.71
2017-07-29T05:33:34.309Z,24.69
2017-07-29T05:34:34.347Z,24.73
2017-07-29T05:35:34.688Z,24.71
2017-07-29T05:36:34.398Z,24.73
2017-07-29T05:37:34.717Z,24.69
2017-07-29T05:38:34.757Z,24.67
2017-07-29T05:39:34.486Z,24.62
2017-07-29T05:40:34.521Z,24.65
2017-07-29T05:41:34.839Z,24.83
2017-07-29T05:42:34.868Z,24.76
2017-07-29T05:43:34.894Z,24.78
2017-07-29T05:44:34.620Z,24.65
2017-07-29T05:45:34.654Z,24.65
2017-07-29T05:46:34.675Z,24.78
2017-07-29T05:47:35.359Z,24.8
2017-07-29T05:48:34.733Z,24.77
2017-07-29T05:49:34.758Z,24.84
2017-07-29T05:50:34.788Z,24.78
2017-07-29T05:51:35.123Z,24.81
2017-07-29T05:52:34.785Z,24.78
2017-07-29T05:53:34.864Z,24.81
2017-07-29T05:54:35.210Z,24.73
2017-07-29T05:55:34.926Z,24.73
2017-07-29T05:56:34.946Z,24.81
2017-07-29T05:57:34.915Z,24.85
2017-07-29T05:58:34.689Z,24.83
2017-07-29T05:59:34.724Z,24.9
2017-07-29T06:00:35.061Z,24.84
2017-07-29T06:01:35.091Z,24.87
2017-07-29T06:02:35.372Z,24.85
2017-07-29T06:03:35.140Z,24.85
2017-07-29T06:04:35.485Z,24.87
2017-07-29T06:05:35.513Z,24.9
2017-07-29T06:06:35.542Z,24.88
2017-07-29T06:07:35.819Z,24.85
2017-07-29T06:08:35.593Z,24.88
2017-07-29T06:09:35.000Z,24.91
2017-07-29T06:10:35.068Z,24.91
2017-07-29T06:11:35.058Z,24.99
2017-07-29T06:12:35.647Z,25.03
2017-07-29T06:13:35.424Z,24.99
2017-07-29T06:14:35.141Z,24.96
2017-07-29T06:15:35.789Z,24.96
2017-07-29T06:16:35.824Z,24.96
2017-07-29T06:17:35.520Z,25.03
2017-07-29T06:18:35.872Z,25
2017-07-29T06:19:35.609Z,25
2017-07-29T06:20:35.622Z,25.06
2017-07-29T06:21:35.654Z,25.05
2017-07-29T06:22:35.615Z,24.98
2017-07-29T06:23:35.401Z,24.99
2017-07-29T06:24:35.745Z,25.02
2017-07-29T06:25:35.758Z,25.03
2017-07-29T06:26:36.098Z,24.98
2017-07-29T06:27:36.426Z,25
2017-07-29T06:28:35.528Z,25.05
2017-07-29T06:29:35.873Z,25.03
2017-07-29T06:30:35.899Z,25.06
2017-07-29T06:31:35.930Z,25.03
2017-07-29T06:32:35.956Z,25.05
2017-07-29T06:33:35.988Z,25.05
2017-07-29T06:34:35.701Z,25.08
2017-07-29T06:35:36.350Z,25.08
2017-07-29T06:36:36.374Z,25.08
2017-07-29T06:37:35.783Z,25.09
2017-07-29T06:38:36.131Z,25.15
2017-07-29T06:39:36.468Z,25.15
2017-07-29T06:40:36.191Z,25.13
2017-07-29T06:41:36.518Z,25.1
2017-07-29T06:42:36.247Z,25.09
2017-07-29T06:43:36.265Z,25.03
2017-07-29T06:44:35.981Z,25.15
2017-07-29T06:45:36.005Z,25.08
2017-07-29T06:46:36.037Z,25.15
2017-07-29T06:47:36.684Z,25.15
2017-07-29T06:48:36.720Z,25.09
2017-07-29T06:49:36.432Z,25.17
2017-07-29T06:50:36.461Z,25.13
2017-07-29T06:51:36.810Z,25.14
2017-07-29T06:52:36.203Z,25.17
2017-07-29T06:53:37.156Z,25.15
2017-07-29T06:54:36.886Z,25.13
2017-07-29T06:55:36.602Z,25.23
2017-07-29T06:56:36.630Z,25.23
2017-07-29T06:57:36.973Z,25.15
2017-07-29T06:58:36.677Z,25.2
2017-07-29T06:59:37.029Z,25.2
2017-07-29T07:00:37.071Z,25.2
2017-07-29T07:01:37.086Z,25.17
2017-07-29T07:02:36.796Z,25.23
2017-07-29T07:03:37.144Z,25.24
2017-07-29T07:04:37.171Z,25.23
2017-07-29T07:05:37.206Z,25.2
2017-07-29T07:06:36.611Z,25.25
2017-07-29T07:07:37.255Z,25.32
2017-07-29T07:08:37.221Z,25.24
2017-07-29T07:09:36.995Z,25.21
2017-07-29T07:10:37.332Z,25.36
2017-07-29T07:11:37.052Z,25.33
2017-07-29T07:12:37.077Z,25.32
2017-07-29T07:13:37.671Z,25.38
2017-07-29T07:14:36.821Z,25.38
2017-07-29T07:15:37.165Z,25.43
2017-07-29T07:16:37.199Z,25.39
2017-07-29T07:17:37.211Z,25.35
2017-07-29T07:18:37.503Z,25.33
2017-07-29T07:19:36.965Z,25.35
2017-07-29T07:20:37.614Z,25.35
2017-07-29T07:21:37.334Z,25.33
2017-07-29T07:22:37.686Z,25.38
2017-07-29T07:23:37.078Z,25.42
2017-07-29T07:24:37.422Z,25.47
2017-07-29T07:25:37.454Z,25.46
2017-07-29T07:26:37.486Z,25.47
2017-07-29T07:27:37.818Z,25.43
2017-07-29T07:28:37.544Z,25.47
2017-07-29T07:29:37.560Z,25.45
2017-07-29T07:30:37.273Z,25.46
2017-07-29T07:31:37.922Z,25.39
2017-07-29T07:32:37.959Z,25.43
2017-07-29T07:33:37.369Z,25.43
2017-07-29T07:34:37.394Z,25.45
2017-07-29T07:35:37.421Z,25.45
2017-07-29T07:36:38.063Z,25.51
2017-07-29T07:37:37.788Z,25.5
2017-07-29T07:38:37.816Z,25.38
2017-07-29T07:39:37.851Z,25.47
2017-07-29T07:40:37.873Z,25.45
2017-07-29T07:41:37.898Z,25.51
2017-07-29T07:42:37.623Z,25.46
2017-07-29T07:43:38.272Z,25.51
2017-07-29T07:44:38.298Z,25.47
2017-07-29T07:45:38.014Z,25.46
2017-07-29T07:46:38.039Z,25.47
2017-07-29T07:47:38.072Z,25.46
2017-07-29T07:48:38.104Z,25.5
2017-07-29T07:49:38.441Z,25.52
2017-07-29T07:50:38.185Z,25.52
2017-07-29T07:51:37.870Z,25.52
2017-07-29T07:52:38.514Z,25.55
2017-07-29T07:53:37.928Z,25.46
2017-07-29T07:54:38.271Z,25.47
2017-07-29T07:55:38.613Z,25.47
2017-07-29T07:56:38.638Z,25.5
2017-07-29T07:57:38.043Z,25.43
2017-07-29T07:58:38.075Z,25.51
2017-07-29T07:59:38.731Z,25.5
2017-07-29T08:00:38.762Z,25.58
2017-07-29T08:01:38.466Z,25.45
2017-07-29T08:02:38.499Z,25.47
2017-07-29T08:03:38.832Z,25.54
2017-07-29T08:04:38.244Z,25.47
2017-07-29T08:05:38.884Z,25.5
2017-07-29T08:06:38.611Z,25.5
2017-07-29T08:07:38.326Z,25.46
2017-07-29T08:08:38.984Z,25.46
2017-07-29T08:09:38.693Z,25.5
2017-07-29T08:10:39.050Z,25.58
2017-07-29T08:11:38.750Z,25.52
2017-07-29T08:12:38.475Z,25.51
2017-07-29T08:13:38.811Z,25.55
2017-07-29T08:14:38.850Z,25.57
2017-07-29T08:15:39.178Z,25.51
2017-07-29T08:16:39.206Z,25.55
2017-07-29T08:17:39.232Z,25.55
2017-07-29T08:18:39.262Z,25.57
2017-07-29T08:19:39.294Z,25.54
2017-07-29T08:20:39.332Z,25.57
2017-07-29T08:21:38.730Z,25.54
2017-07-29T08:22:39.379Z,25.58
2017-07-29T08:23:39.091Z,25.6
2017-07-29T08:24:39.371Z,25.57
2017-07-29T08:25:39.462Z,25.58
2017-07-29T08:26:39.174Z,25.57
2017-07-29T08:27:39.521Z,25.61
2017-07-29T08:28:39.557Z,25.62
2017-07-29T08:29:39.521Z,25.64
2017-07-29T08:30:39.623Z,25.64
2017-07-29T08:31:39.319Z,25.62
2017-07-29T08:32:39.654Z,25.61
2017-07-29T08:33:39.381Z,25.54
2017-07-29T08:34:39.352Z,25.62
2017-07-29T08:35:39.449Z,25.67
2017-07-29T08:36:39.778Z,25.64
2017-07-29T08:37:39.492Z,25.6
2017-07-29T08:38:39.832Z,25.64
2017-07-29T08:39:39.490Z,25.69
2017-07-29T08:40:39.581Z,25.69
2017-07-29T08:41:39.602Z,25.64
2017-07-29T08:42:39.963Z,25.72
2017-07-29T08:43:39.343Z,25.69
2017-07-29T08:44:39.989Z,25.77
2017-07-29T08:45:39.714Z,25.75
2017-07-29T08:46:39.431Z,25.7
2017-07-29T08:47:40.086Z,25.75
2017-07-29T08:48:39.804Z,25.76
2017-07-29T08:49:39.775Z,25.77
2017-07-29T08:50:39.865Z,25.82
2017-07-29T08:51:39.890Z,25.76
2017-07-29T08:52:40.020Z,25.83
2017-07-29T08:53:40.259Z,25.77
2017-07-29T08:54:39.914Z,25.77
2017-07-29T08:55:40.070Z,25.82
2017-07-29T08:56:40.031Z,25.8
2017-07-29T08:57:40.060Z,25.8
2017-07-29T08:58:39.780Z,25.76
2017-07-29T08:59:40.729Z,25.77
2017-07-29T09:00:40.454Z,25.82
2017-07-29T09:01:40.190Z,25.85
2017-07-29T09:02:40.191Z,25.88
2017-07-29T09:03:40.223Z,25.87
2017-07-29T09:04:40.557Z,25.85
2017-07-29T09:05:40.601Z,25.92
2017-07-29T09:06:40.016Z,25.83
2017-07-29T09:07:40.661Z,25.88
2017-07-29T09:08:40.693Z,25.9
2017-07-29T09:09:40.698Z,25.9
2017-07-29T09:10:40.437Z,25.91
2017-07-29T09:11:40.458Z,25.95
2017-07-29T09:12:40.796Z,25.94
2017-07-29T09:13:40.841Z,25.97
2017-07-29T09:14:41.154Z,25.94
2017-07-29T09:15:40.892Z,25.92
2017-07-29T09:16:40.919Z,25.91
2017-07-29T09:17:40.315Z,25.91
2017-07-29T09:18:40.671Z,25.95
2017-07-29T09:19:40.707Z,25.9
2017-07-29T09:20:40.721Z,26.01
2017-07-29T09:21:40.746Z,25.9
2017-07-29T09:22:41.084Z,25.91
2017-07-29T09:23:40.804Z,26.01
2017-07-29T09:24:41.149Z,26.05
2017-07-29T09:25:41.185Z,26.02
2017-07-29T09:26:40.891Z,26.01
2017-07-29T09:27:40.606Z,26.09
2017-07-29T09:28:40.956Z,26.07
2017-07-29T09:29:41.269Z,26.09
2017-07-29T09:30:41.314Z,26.05
2017-07-29T09:31:41.040Z,26.06
2017-07-29T09:32:40.748Z,26.05
2017-07-29T09:33:40.779Z,26.17
2017-07-29T09:34:41.117Z,26.05
2017-07-29T09:35:40.830Z,26.1
2017-07-29T09:36:41.507Z,26.12
2017-07-29T09:37:41.509Z,26.07
2017-07-29T09:38:41.232Z,26.1
2017-07-29T09:39:41.264Z,26.13
2017-07-29T09:40:41.605Z,26.07
2017-07-29T09:41:41.311Z,26.1
2017-07-29T09:42:41.352Z,26.18
2017-07-29T09:43:41.699Z,26.18
2017-07-29T09:44:41.097Z,26.2
2017-07-29T09:45:41.432Z,26.15
2017-07-29T09:46:41.464Z,26.18
2017-07-29T09:47:41.492Z,26.17
2017-07-29T09:48:41.845Z,26.32
2017-07-29T09:49:41.550Z,26.32
2017-07-29T09:50:41.892Z,26.29
2017-07-29T09:51:41.295Z,26.28
2017-07-29T09:52:41.952Z,26.28
2017-07-29T09:53:41.668Z,26.26
2017-07-29T09:54:41.701Z,26.33
2017-07-29T09:55:42.038Z,26.33
2017-07-29T09:56:41.440Z,26.36
2017-07-29T09:57:41.785Z,26.39
2017-07-29T09:58:41.811Z,26.37
2017-07-29T09:59:42.147Z,26.35
2017-07-29T10:00:42.174Z,26.44
2017-07-29T10:01:41.899Z,26.5
2017-07-29T10:02:42.237Z,26.47
2017-07-29T10:03:41.957Z,26.5
2017-07-29T10:04:41.671Z,26.39
2017-07-29T10:05:42.323Z,26.52
2017-07-29T10:06:42.041Z,26.54
2017-07-29T10:07:42.073Z,26.57
2017-07-29T10:08:41.786Z,26.62
2017-07-29T10:09:42.129Z,26.7
2017-07-29T10:10:41.834Z,26.67
2017-07-29T10:11:42.183Z,26.69
2017-07-29T10:12:42.213Z,26.66
2017-07-29T10:13:42.555Z,26.63
2017-07-29T10:14:42.278Z,26.7
2017-07-29T10:15:42.866Z,26.73
2017-07-29T10:16:42.019Z,26.76
2017-07-29T10:17:42.664Z,26.8
2017-07-29T10:18:42.753Z,26.82
2017-07-29T10:19:42.721Z,26.8
2017-07-29T10:20:42.723Z,26.82
2017-07-29T10:21:42.804Z,26.77
2017-07-29T10:22:42.862Z,26.82
2017-07-29T10:23:42.250Z,26.87
2017-07-29T10:24:42.884Z,26.82
2017-07-29T10:25:42.632Z,26.87
2017-07-29T10:26:42.945Z,26.88
2017-07-29T10:27:42.655Z,26.82
2017-07-29T10:28:42.393Z,26.87
2017-07-29T10:29:42.701Z,26.84
2017-07-29T10:30:42.992Z,26.94
2017-07-29T10:31:43.083Z,26.89
2017-07-29T10:32:42.484Z,26.89
2017-07-29T10:33:42.513Z,26.92
2017-07-29T10:34:43.158Z,26.94
2017-07-29T10:35:43.130Z,26.91
2017-07-29T10:36:42.921Z,26.99
2017-07-29T10:37:43.314Z,26.87
2017-07-29T10:38:43.289Z,26.92
2017-07-29T10:39:42.698Z,26.87
2017-07-29T10:40:43.591Z,26.92
2017-07-29T10:41:43.050Z,27
2017-07-29T10:42:43.397Z,26.99
2017-07-29T10:43:43.118Z,27
2017-07-29T10:44:43.150Z,27
2017-07-29T10:45:43.427Z,26.97
2017-07-29T10:46:43.517Z,27.04
2017-07-29T10:47:43.550Z,27.07
2017-07-29T10:48:43.577Z,27.04
2017-07-29T10:49:43.291Z,27.06
2017-07-29T10:50:43.623Z,27.03
2017-07-29T10:51:43.664Z,27.03
2017-07-29T10:52:43.689Z,27.09
2017-07-29T10:53:43.107Z,27.12
2017-07-29T10:54:43.133Z,27.1
2017-07-29T10:55:43.771Z,27.09
2017-07-29T10:56:43.808Z,27.14
2017-07-29T10:57:43.841Z,27.14
2017-07-29T10:58:43.874Z,27.09
2017-07-29T10:59:43.911Z,27.14
2017-07-29T11:00:43.915Z,27.04
2017-07-29T11:01:43.961Z,27.17
2017-07-29T11:02:43.676Z,27.09
2017-07-29T11:03:43.707Z,27.12
2017-07-29T11:04:43.733Z,27.1
2017-07-29T11:05:44.020Z,27.18
2017-07-29T11:06:43.823Z,27.22
2017-07-29T11:07:44.151Z,27.22
2017-07-29T11:08:43.852Z,27.14
2017-07-29T11:09:44.200Z,27.14
2017-07-29T11:10:44.213Z,27.21
2017-07-29T11:11:44.267Z,27.24
2017-07-29T11:12:44.284Z,27.22
2017-07-29T11:13:44.006Z,27.19
2017-07-29T11:14:44.034Z,27.12
2017-07-29T11:15:44.359Z,27.21
2017-07-29T11:16:44.397Z,27.18
2017-07-29T11:17:44.429Z,27.27
2017-07-29T11:18:44.165Z,27.28
2017-07-29T11:19:44.479Z,27.28
2017-07-29T11:20:44.500Z,27.28
2017-07-29T11:21:44.236Z,27.25
2017-07-29T11:22:44.581Z,27.29
2017-07-29T11:23:44.608Z,27.34
2017-07-29T11:24:44.324Z,27.34
2017-07-29T11:25:44.648Z,27.4
2017-07-29T11:26:44.697Z,27.39
2017-07-29T11:27:44.105Z,27.36
2017-07-29T11:28:44.446Z,27.36
2017-07-29T11:29:44.480Z,27.4
2017-07-29T11:30:44.751Z,27.47
2017-07-29T11:31:44.530Z,27.49
2017-07-29T11:32:44.252Z,27.51
2017-07-29T11:33:44.913Z,27.54
2017-07-29T11:34:44.311Z,27.54
2017-07-29T11:35:44.590Z,27.63
2017-07-29T11:36:44.704Z,27.54
2017-07-29T11:37:44.705Z,27.54
2017-07-29T11:38:44.730Z,27.59
2017-07-29T11:39:44.774Z,27.69
2017-07-29T11:40:45.360Z,27.72
2017-07-29T11:41:44.832Z,27.74
2017-07-29T11:42:44.863Z,27.7
2017-07-29T11:43:44.890Z,27.75
2017-07-29T11:44:44.935Z,27.78
2017-07-29T11:45:45.563Z,27.84
2017-07-29T11:46:44.667Z,27.82
2017-07-29T11:47:44.698Z,27.85
2017-07-29T11:48:45.042Z,27.88
2017-07-29T11:49:45.384Z,27.93
2017-07-29T11:50:45.092Z,27.99
2017-07-29T11:51:44.832Z,28.02
2017-07-29T11:52:45.207Z,28.06
2017-07-29T11:53:44.928Z,28.03
2017-07-29T11:54:45.212Z,28.03
2017-07-29T11:55:45.257Z,28.09
2017-07-29T11:56:45.482Z,28.11
2017-07-29T11:57:45.356Z,28.15
2017-07-29T11:58:45.351Z,28.14
2017-07-29T11:59:45.075Z,28.22
2017-07-29T12:00:45.467Z,28.22
2017-07-29T12:01:45.454Z,28.22
2017-07-29T12:02:45.233Z,28.27
2017-07-29T12:03:46.047Z,28.4
2017-07-29T12:04:45.551Z,28.43
2017-07-29T12:05:45.689Z,28.44
2017-07-29T12:06:45.320Z,28.41
2017-07-29T12:07:45.599Z,28.39
2017-07-29T12:08:45.678Z,28.52
2017-07-29T12:09:45.527Z,28.51
2017-07-29T12:10:45.745Z,28.62
2017-07-29T12:11:46.124Z,28.62
2017-07-29T12:12:45.468Z,28.66
2017-07-29T12:13:45.663Z,28.68
2017-07-29T12:14:45.533Z,28.67
2017-07-29T12:15:45.990Z,28.67
2017-07-29T12:16:45.979Z,28.76
2017-07-29T12:17:45.722Z,28.88
2017-07-29T12:18:45.799Z,28.95
2017-07-29T12:19:45.751Z,29.05
2017-07-29T12:20:45.825Z,28.96
2017-07-29T12:21:46.074Z,29.08
2017-07-29T12:22:46.228Z,29.18
2017-07-29T12:23:46.163Z,29.23
2017-07-29T12:24:45.947Z,29.21
2017-07-29T12:25:46.217Z,29.36
2017-07-29T12:26:46.218Z,29.45
2017-07-29T12:28:46.579Z,29.73
2017-07-29T12:29:46.312Z,29.74
2017-07-29T12:30:46.651Z,29.79
2017-07-29T12:31:46.065Z,29.94
2017-07-29T12:32:46.402Z,29.98
2017-07-29T12:33:46.122Z,30.05
2017-07-29T12:34:46.471Z,30.2
2017-07-29T12:35:46.803Z,30.26
2017-07-29T12:36:46.524Z,30.32
2017-07-29T12:37:46.562Z,30.46
2017-07-29T12:38:46.601Z,30.57
2017-07-29T12:39:46.946Z,30.7
2017-07-29T12:40:46.989Z,30.73
2017-07-29T12:41:46.381Z,30.83
2017-07-29T12:42:46.745Z,30.83
2017-07-29T12:43:46.761Z,30.84
2017-07-29T12:44:46.787Z,31.04
2017-07-29T12:45:46.500Z,31.1
2017-07-29T12:46:46.872Z,31.17
2017-07-29T12:47:46.615Z,31.2
2017-07-29T12:48:46.620Z,31.26
2017-07-29T12:49:46.944Z,31.34
2017-07-29T12:50:47.338Z,31.53
2017-07-29T12:51:47.050Z,31.51
2017-07-29T12:52:47.375Z,31.61
2017-07-29T12:53:47.106Z,31.65
2017-07-29T12:54:47.417Z,31.69
2017-07-29T12:55:46.873Z,31.84
2017-07-29T12:56:47.486Z,31.96
2017-07-29T12:57:47.539Z,32.01
2017-07-29T12:58:47.253Z,32.1